sensor_id;sensor_type;location;lat;lon;timestamp;temperature;humidity
65478;SHT31;53678;39.642;22.430;2023-04-25T00:00:28;15.77;65.05
65478;SHT31;53678;39.642;22.430;2023-04-25T00:02:55;15.81;65.09
65478;SHT31;53678;39.642;22.430;2023-04-25T00:05:26;15.82;64.80
65478;SHT31;53678;39.642;22.430;2023-04-25T00:07:56;15.85;64.64
65478;SHT31;53678;39.642;22.430;2023-04-25T00:10:25;15.94;64.38
65478;SHT31;53678;39.642;22.430;2023-04-25T00:12:51;15.99;64.35
65478;SHT31;53678;39.642;22.430;2023-04-25T00:15:20;16.08;64.41
65478;SHT31;53678;39.642;22.430;2023-04-25T00:17:48;16.13;64.08
65478;SHT31;53678;39.642;22.430;2023-04-25T00:20:15;16.19;63.71
65478;SHT31;53678;39.642;22.430;2023-04-25T00:22:44;16.25;63.33
65478;SHT31;53678;39.642;22.430;2023-04-25T00:25:13;16.32;63.54
65478;SHT31;53678;39.642;22.430;2023-04-25T00:27:39;16.50;63.25
65478;SHT31;53678;39.642;22.430;2023-04-25T00:30:08;16.57;62.78
65478;SHT31;53678;39.642;22.430;2023-04-25T00:32:34;16.61;62.43
65478;SHT31;53678;39.642;22.430;2023-04-25T00:35:01;16.77;61.73
65478;SHT31;53678;39.642;22.430;2023-04-25T00:37:27;16.71;61.82
65478;SHT31;53678;39.642;22.430;2023-04-25T00:39:53;16.94;61.44
65478;SHT31;53678;39.642;22.430;2023-04-25T00:42:21;16.85;61.49
65478;SHT31;53678;39.642;22.430;2023-04-25T00:44:47;16.85;61.83
65478;SHT31;53678;39.642;22.430;2023-04-25T00:47:13;16.71;61.65
65478;SHT31;53678;39.642;22.430;2023-04-25T00:49:40;16.44;62.33
65478;SHT31;53678;39.642;22.430;2023-04-25T00:52:07;16.15;63.04
65478;SHT31;53678;39.642;22.430;2023-04-25T00:54:34;15.94;63.51
65478;SHT31;53678;39.642;22.430;2023-04-25T00:57:00;15.57;64.48
65478;SHT31;53678;39.642;22.430;2023-04-25T00:59:27;15.38;65.17
65478;SHT31;53678;39.642;22.430;2023-04-25T01:01:53;15.30;65.47
65478;SHT31;53678;39.642;22.430;2023-04-25T01:04:21;14.99;66.41
65478;SHT31;53678;39.642;22.430;2023-04-25T01:06:52;14.90;67.00
65478;SHT31;53678;39.642;22.430;2023-04-25T01:09:18;14.93;67.00
65478;SHT31;53678;39.642;22.430;2023-04-25T01:11:45;15.07;66.63
65478;SHT31;53678;39.642;22.430;2023-04-25T01:14:12;15.09;66.56
65478;SHT31;53678;39.642;22.430;2023-04-25T01:16:37;15.26;66.18
65478;SHT31;53678;39.642;22.430;2023-04-25T01:19:09;15.31;65.94
65478;SHT31;53678;39.642;22.430;2023-04-25T01:21:37;15.33;65.84
65478;SHT31;53678;39.642;22.430;2023-04-25T01:24:03;15.37;65.85
65478;SHT31;53678;39.642;22.430;2023-04-25T01:26:31;15.48;65.64
65478;SHT31;53678;39.642;22.430;2023-04-25T01:28:57;15.46;65.73
65478;SHT31;53678;39.642;22.430;2023-04-25T01:31:23;15.41;65.91
65478;SHT31;53678;39.642;22.430;2023-04-25T01:33:49;15.41;65.80
65478;SHT31;53678;39.642;22.430;2023-04-25T01:36:15;15.37;65.99
65478;SHT31;53678;39.642;22.430;2023-04-25T01:38:41;15.41;65.72
65478;SHT31;53678;39.642;22.430;2023-04-25T01:41:07;15.41;65.56
65478;SHT31;53678;39.642;22.430;2023-04-25T01:43:33;15.41;65.74
65478;SHT31;53678;39.642;22.430;2023-04-25T01:45:59;15.22;66.24
65478;SHT31;53678;39.642;22.430;2023-04-25T01:48:25;14.75;67.19
65478;SHT31;53678;39.642;22.430;2023-04-25T01:50:51;14.37;68.13
65478;SHT31;53678;39.642;22.430;2023-04-25T01:53:17;14.25;68.65
65478;SHT31;53678;39.642;22.430;2023-04-25T01:55:44;14.17;68.78
65478;SHT31;53678;39.642;22.430;2023-04-25T01:58:13;14.10;69.31
65478;SHT31;53678;39.642;22.430;2023-04-25T02:00:58;14.16;69.05
65478;SHT31;53678;39.642;22.430;2023-04-25T02:03:31;14.06;69.18
65478;SHT31;53678;39.642;22.430;2023-04-25T02:05:58;14.17;69.02
65478;SHT31;53678;39.642;22.430;2023-04-25T02:08:24;14.27;68.81
65478;SHT31;53678;39.642;22.430;2023-04-25T02:10:54;14.42;68.44
65478;SHT31;53678;39.642;22.430;2023-04-25T02:13:19;14.67;67.53
65478;SHT31;53678;39.642;22.430;2023-04-25T02:16:01;14.79;67.17
65478;SHT31;53678;39.642;22.430;2023-04-25T02:18:29;14.82;66.98
65478;SHT31;53678;39.642;22.430;2023-04-25T02:20:54;14.93;66.48
65478;SHT31;53678;39.642;22.430;2023-04-25T02:23:20;15.00;66.53
65478;SHT31;53678;39.642;22.430;2023-04-25T02:25:46;15.13;66.20
65478;SHT31;53678;39.642;22.430;2023-04-25T02:28:13;15.11;66.24
65478;SHT31;53678;39.642;22.430;2023-04-25T02:30:38;15.03;66.13
65478;SHT31;53678;39.642;22.430;2023-04-25T02:33:04;15.00;66.27
65478;SHT31;53678;39.642;22.430;2023-04-25T02:35:30;15.04;66.41
65478;SHT31;53678;39.642;22.430;2023-04-25T02:37:56;15.00;66.29
65478;SHT31;53678;39.642;22.430;2023-04-25T02:40:21;15.06;65.79
65478;SHT31;53678;39.642;22.430;2023-04-25T02:42:47;15.02;65.78
65478;SHT31;53678;39.642;22.430;2023-04-25T02:45:13;15.02;66.24
65478;SHT31;53678;39.642;22.430;2023-04-25T02:47:39;14.99;66.32
65478;SHT31;53678;39.642;22.430;2023-04-25T02:50:05;15.06;66.14
65478;SHT31;53678;39.642;22.430;2023-04-25T02:52:31;14.51;67.27
65478;SHT31;53678;39.642;22.430;2023-04-25T02:55:06;14.32;68.05
65478;SHT31;53678;39.642;22.430;2023-04-25T02:57:37;14.30;68.10
65478;SHT31;53678;39.642;22.430;2023-04-25T03:00:03;14.38;68.04
65478;SHT31;53678;39.642;22.430;2023-04-25T03:02:30;14.32;68.43
65478;SHT31;53678;39.642;22.430;2023-04-25T03:04:56;14.41;68.65
65478;SHT31;53678;39.642;22.430;2023-04-25T03:07:22;14.10;69.23
65478;SHT31;53678;39.642;22.430;2023-04-25T03:09:48;13.90;71.09
65478;SHT31;53678;39.642;22.430;2023-04-25T03:12:13;13.87;71.76
65478;SHT31;53678;39.642;22.430;2023-04-25T03:14:39;14.03;70.81
65478;SHT31;53678;39.642;22.430;2023-04-25T03:17:05;14.14;70.41
65478;SHT31;53678;39.642;22.430;2023-04-25T03:19:34;14.24;69.70
65478;SHT31;53678;39.642;22.430;2023-04-25T03:22:00;14.38;69.48
65478;SHT31;53678;39.642;22.430;2023-04-25T03:24:26;14.45;68.86
65478;SHT31;53678;39.642;22.430;2023-04-25T03:26:52;14.61;68.59
65478;SHT31;53678;39.642;22.430;2023-04-25T03:29:18;14.69;68.19
65478;SHT31;53678;39.642;22.430;2023-04-25T03:31:46;14.83;67.81
65478;SHT31;53678;39.642;22.430;2023-04-25T03:34:11;14.93;67.18
65478;SHT31;53678;39.642;22.430;2023-04-25T03:36:40;15.00;66.63
65478;SHT31;53678;39.642;22.430;2023-04-25T03:39:06;15.10;66.57
65478;SHT31;53678;39.642;22.430;2023-04-25T03:41:32;15.17;66.48
65478;SHT31;53678;39.642;22.430;2023-04-25T03:44:05;15.27;65.91
65478;SHT31;53678;39.642;22.430;2023-04-25T03:46:32;15.40;65.85
65478;SHT31;53678;39.642;22.430;2023-04-25T03:48:58;15.61;64.80
65478;SHT31;53678;39.642;22.430;2023-04-25T03:51:34;16.04;64.17
65478;SHT31;53678;39.642;22.430;2023-04-25T03:54:01;16.43;63.01
65478;SHT31;53678;39.642;22.430;2023-04-25T03:56:31;16.83;61.84
65478;SHT31;53678;39.642;22.430;2023-04-25T03:59:09;17.28;60.47
65478;SHT31;53678;39.642;22.430;2023-04-25T04:01:34;17.77;59.90
65478;SHT31;53678;39.642;22.430;2023-04-25T04:04:01;18.25;58.25
65478;SHT31;53678;39.642;22.430;2023-04-25T04:06:29;18.41;57.85
65478;SHT31;53678;39.642;22.430;2023-04-25T04:09:04;18.68;57.15
65478;SHT31;53678;39.642;22.430;2023-04-25T04:11:38;18.75;56.58
65478;SHT31;53678;39.642;22.430;2023-04-25T04:14:07;17.35;61.50
65478;SHT31;53678;39.642;22.430;2023-04-25T04:16:36;17.42;61.68
65478;SHT31;53678;39.642;22.430;2023-04-25T04:19:02;17.90;59.61
65478;SHT31;53678;39.642;22.430;2023-04-25T04:21:28;17.50;60.24
65478;SHT31;53678;39.642;22.430;2023-04-25T04:23:54;17.08;61.21
65478;SHT31;53678;39.642;22.430;2023-04-25T04:26:21;16.23;61.76
65478;SHT31;53678;39.642;22.430;2023-04-25T04:28:55;16.66;61.38
65478;SHT31;53678;39.642;22.430;2023-04-25T04:31:45;16.01;62.37
65478;SHT31;53678;39.642;22.430;2023-04-25T04:34:10;15.67;64.02
65478;SHT31;53678;39.642;22.430;2023-04-25T04:36:37;16.20;63.03
65478;SHT31;53678;39.642;22.430;2023-04-25T04:39:05;18.17;58.51
65478;SHT31;53678;39.642;22.430;2023-04-25T04:41:38;18.34;56.76
65478;SHT31;53678;39.642;22.430;2023-04-25T04:44:12;19.97;53.83
65478;SHT31;53678;39.642;22.430;2023-04-25T04:46:50;19.68;53.90
65478;SHT31;53678;39.642;22.430;2023-04-25T04:49:39;19.04;55.36
65478;SHT31;53678;39.642;22.430;2023-04-25T04:52:28;19.27;54.82
65478;SHT31;53678;39.642;22.430;2023-04-25T04:55:17;18.32;58.55
65478;SHT31;53678;39.642;22.430;2023-04-25T04:58:05;18.75;56.97
65478;SHT31;53678;39.642;22.430;2023-04-25T05:01:06;19.09;56.04
65478;SHT31;53678;39.642;22.430;2023-04-25T05:03:54;19.02;56.64
65478;SHT31;53678;39.642;22.430;2023-04-25T05:06:43;19.75;54.98
65478;SHT31;53678;39.642;22.430;2023-04-25T05:09:33;19.18;56.29
65478;SHT31;53678;39.642;22.430;2023-04-25T05:12:17;19.28;55.34
65478;SHT31;53678;39.642;22.430;2023-04-25T05:14:56;19.90;54.65
65478;SHT31;53678;39.642;22.430;2023-04-25T05:17:57;20.17;54.02
65478;SHT31;53678;39.642;22.430;2023-04-25T05:20:30;20.27;53.68
65478;SHT31;53678;39.642;22.430;2023-04-25T05:23:21;20.50;52.17
65478;SHT31;53678;39.642;22.430;2023-04-25T05:25:58;20.00;53.08
65478;SHT31;53678;39.642;22.430;2023-04-25T05:28:52;19.46;54.56
65478;SHT31;53678;39.642;22.430;2023-04-25T05:31:35;19.72;53.59
65478;SHT31;53678;39.642;22.430;2023-04-25T05:34:06;19.74;53.78
65478;SHT31;53678;39.642;22.430;2023-04-25T05:36:42;20.17;52.76
65478;SHT31;53678;39.642;22.430;2023-04-25T05:39:09;20.34;52.56
65478;SHT31;53678;39.642;22.430;2023-04-25T05:41:54;20.46;52.41
65478;SHT31;53678;39.642;22.430;2023-04-25T05:44:40;21.13;51.06
65478;SHT31;53678;39.642;22.430;2023-04-25T05:47:21;21.13;51.19
65478;SHT31;53678;39.642;22.430;2023-04-25T05:50:06;20.37;53.38
65478;SHT31;53678;39.642;22.430;2023-04-25T05:52:50;19.82;54.89
65478;SHT31;53678;39.642;22.430;2023-04-25T05:55:23;19.62;55.57
65478;SHT31;53678;39.642;22.430;2023-04-25T05:57:49;19.53;55.17
65478;SHT31;53678;39.642;22.430;2023-04-25T06:00:16;19.64;55.68
65478;SHT31;53678;39.642;22.430;2023-04-25T06:02:44;19.86;54.85
65478;SHT31;53678;39.642;22.430;2023-04-25T06:05:12;19.82;54.41
65478;SHT31;53678;39.642;22.430;2023-04-25T06:07:38;19.79;55.08
65478;SHT31;53678;39.642;22.430;2023-04-25T06:10:04;19.95;54.30
65478;SHT31;53678;39.642;22.430;2023-04-25T06:12:32;20.13;53.80
65478;SHT31;53678;39.642;22.430;2023-04-25T06:14:59;20.19;53.61
65478;SHT31;53678;39.642;22.430;2023-04-25T06:17:26;20.81;52.28
65478;SHT31;53678;39.642;22.430;2023-04-25T06:19:53;21.35;51.45
65478;SHT31;53678;39.642;22.430;2023-04-25T06:22:20;21.84;50.60
65478;SHT31;53678;39.642;22.430;2023-04-25T06:24:48;21.98;50.00
65478;SHT31;53678;39.642;22.430;2023-04-25T06:27:14;21.19;51.47
65478;SHT31;53678;39.642;22.430;2023-04-25T06:29:41;20.81;52.94
65478;SHT31;53678;39.642;22.430;2023-04-25T06:32:07;20.37;54.09
65478;SHT31;53678;39.642;22.430;2023-04-25T06:34:34;20.10;54.11
65478;SHT31;53678;39.642;22.430;2023-04-25T06:37:01;20.30;54.09
65478;SHT31;53678;39.642;22.430;2023-04-25T06:39:27;20.20;54.25
65478;SHT31;53678;39.642;22.430;2023-04-25T06:41:55;20.37;54.25
65478;SHT31;53678;39.642;22.430;2023-04-25T06:44:39;20.15;54.63
65478;SHT31;53678;39.642;22.430;2023-04-25T06:47:07;20.08;55.08
65478;SHT31;53678;39.642;22.430;2023-04-25T06:49:33;20.27;54.88
65478;SHT31;53678;39.642;22.430;2023-04-25T06:51:59;20.44;53.98
65478;SHT31;53678;39.642;22.430;2023-04-25T06:54:26;19.38;56.28
65478;SHT31;53678;39.642;22.430;2023-04-25T06:57:02;19.92;54.93
65478;SHT31;53678;39.642;22.430;2023-04-25T06:59:28;20.02;54.93
65478;SHT31;53678;39.642;22.430;2023-04-25T07:01:55;19.88;55.02
65478;SHT31;53678;39.642;22.430;2023-04-25T07:04:24;20.43;55.13
65478;SHT31;53678;39.642;22.430;2023-04-25T07:06:57;20.48;54.92
65478;SHT31;53678;39.642;22.430;2023-04-25T07:09:33;20.65;54.74
65478;SHT31;53678;39.642;22.430;2023-04-25T07:12:00;21.23;53.88
65478;SHT31;53678;39.642;22.430;2023-04-25T07:14:27;20.88;54.01
65478;SHT31;53678;39.642;22.430;2023-04-25T07:16:54;21.32;53.25
65478;SHT31;53678;39.642;22.430;2023-04-25T07:19:23;20.92;54.34
65478;SHT31;53678;39.642;22.430;2023-04-25T07:21:55;21.22;53.47
65478;SHT31;53678;39.642;22.430;2023-04-25T07:24:21;21.62;52.22
65478;SHT31;53678;39.642;22.430;2023-04-25T07:26:48;20.70;54.46
65478;SHT31;53678;39.642;22.430;2023-04-25T07:29:29;21.67;52.12
65478;SHT31;53678;39.642;22.430;2023-04-25T07:31:58;21.64;52.19
65478;SHT31;53678;39.642;22.430;2023-04-25T07:34:24;22.11;51.07
65478;SHT31;53678;39.642;22.430;2023-04-25T07:36:51;22.55;51.11
65478;SHT31;53678;39.642;22.430;2023-04-25T07:39:18;22.77;49.41
65478;SHT31;53678;39.642;22.430;2023-04-25T07:41:44;23.28;48.41
65478;SHT31;53678;39.642;22.430;2023-04-25T07:44:22;22.75;49.47
65478;SHT31;53678;39.642;22.430;2023-04-25T07:46:48;22.73;49.53
65478;SHT31;53678;39.642;22.430;2023-04-25T07:49:15;22.87;49.25
65478;SHT31;53678;39.642;22.430;2023-04-25T07:51:43;22.44;49.73
65478;SHT31;53678;39.642;22.430;2023-04-25T07:54:14;22.45;49.62
65478;SHT31;53678;39.642;22.430;2023-04-25T07:56:47;22.56;49.31
65478;SHT31;53678;39.642;22.430;2023-04-25T07:59:14;22.72;49.51
65478;SHT31;53678;39.642;22.430;2023-04-25T08:01:41;23.11;48.72
65478;SHT31;53678;39.642;22.430;2023-04-25T08:04:10;23.21;48.83
65478;SHT31;53678;39.642;22.430;2023-04-25T08:07:10;22.56;50.23
65478;SHT31;53678;39.642;22.430;2023-04-25T08:09:46;22.53;50.87
65478;SHT31;53678;39.642;22.430;2023-04-25T08:12:22;22.51;50.57
65478;SHT31;53678;39.642;22.430;2023-04-25T08:14:48;22.68;50.70
65478;SHT31;53678;39.642;22.430;2023-04-25T08:17:14;22.17;51.02
65478;SHT31;53678;39.642;22.430;2023-04-25T08:19:45;22.41;51.06
65478;SHT31;53678;39.642;22.430;2023-04-25T08:22:20;22.42;51.29
65478;SHT31;53678;39.642;22.430;2023-04-25T08:24:52;22.25;51.34
65478;SHT31;53678;39.642;22.430;2023-04-25T08:27:18;22.31;51.01
65478;SHT31;53678;39.642;22.430;2023-04-25T08:29:47;22.32;50.68
65478;SHT31;53678;39.642;22.430;2023-04-25T08:32:13;22.87;49.83
65478;SHT31;53678;39.642;22.430;2023-04-25T08:34:50;22.39;50.07
65478;SHT31;53678;39.642;22.430;2023-04-25T08:37:19;23.24;48.35
65478;SHT31;53678;39.642;22.430;2023-04-25T08:40:11;23.99;47.38
65478;SHT31;53678;39.642;22.430;2023-04-25T08:43:00;24.63;46.83
65478;SHT31;53678;39.642;22.430;2023-04-25T08:45:32;25.14;46.19
65478;SHT31;53678;39.642;22.430;2023-04-25T08:47:58;24.61;44.67
65478;SHT31;53678;39.642;22.430;2023-04-25T08:50:24;24.95;42.39
65478;SHT31;53678;39.642;22.430;2023-04-25T08:52:54;25.14;41.63
65478;SHT31;53678;39.642;22.430;2023-04-25T08:55:23;25.38;41.52
65478;SHT31;53678;39.642;22.430;2023-04-25T08:57:55;25.04;41.15
65478;SHT31;53678;39.642;22.430;2023-04-25T09:00:22;24.81;42.43
65478;SHT31;53678;39.642;22.430;2023-04-25T09:02:48;24.53;42.16
65478;SHT31;53678;39.642;22.430;2023-04-25T09:05:16;23.82;44.06
65478;SHT31;53678;39.642;22.430;2023-04-25T09:07:44;24.47;43.18
65478;SHT31;53678;39.642;22.430;2023-04-25T09:10:10;24.63;42.56
65478;SHT31;53678;39.642;22.430;2023-04-25T09:12:39;24.75;42.75
65478;SHT31;53678;39.642;22.430;2023-04-25T09:15:09;25.01;42.50
65478;SHT31;53678;39.642;22.430;2023-04-25T09:18:11;25.09;41.30
65478;SHT31;53678;39.642;22.430;2023-04-25T09:20:43;25.16;37.80
65478;SHT31;53678;39.642;22.430;2023-04-25T09:23:10;24.98;37.96
65478;SHT31;53678;39.642;22.430;2023-04-25T09:25:38;24.94;38.21
65478;SHT31;53678;39.642;22.430;2023-04-25T09:28:10;25.21;36.93
65478;SHT31;53678;39.642;22.430;2023-04-25T09:30:36;25.19;36.86
65478;SHT31;53678;39.642;22.430;2023-04-25T09:33:11;25.25;37.13
65478;SHT31;53678;39.642;22.430;2023-04-25T09:35:44;24.39;38.47
65478;SHT31;53678;39.642;22.430;2023-04-25T09:38:22;24.26;39.24
65478;SHT31;53678;39.642;22.430;2023-04-25T09:40:56;23.98;40.07
65478;SHT31;53678;39.642;22.430;2023-04-25T09:43:45;24.74;39.90
65478;SHT31;53678;39.642;22.430;2023-04-25T09:46:13;24.84;39.52
65478;SHT31;53678;39.642;22.430;2023-04-25T09:48:50;24.71;39.83
65478;SHT31;53678;39.642;22.430;2023-04-25T09:51:25;24.22;40.04
65478;SHT31;53678;39.642;22.430;2023-04-25T09:53:51;24.06;41.06
65478;SHT31;53678;39.642;22.430;2023-04-25T09:56:27;24.63;40.44
65478;SHT31;53678;39.642;22.430;2023-04-25T09:58:57;24.85;39.74
65478;SHT31;53678;39.642;22.430;2023-04-25T10:01:24;24.77;39.81
65478;SHT31;53678;39.642;22.430;2023-04-25T10:04:04;24.70;39.94
65478;SHT31;53678;39.642;22.430;2023-04-25T10:06:50;24.99;39.79
65478;SHT31;53678;39.642;22.430;2023-04-25T10:09:20;25.30;38.64
65478;SHT31;53678;39.642;22.430;2023-04-25T10:11:48;25.18;39.23
65478;SHT31;53678;39.642;22.430;2023-04-25T10:14:16;25.28;38.93
65478;SHT31;53678;39.642;22.430;2023-04-25T10:16:43;24.23;39.89
65478;SHT31;53678;39.642;22.430;2023-04-25T10:19:10;24.51;39.92
65478;SHT31;53678;39.642;22.430;2023-04-25T10:24:30;24.74;39.68
65478;SHT31;53678;39.642;22.430;2023-04-25T10:26:59;25.07;39.54
65478;SHT31;53678;39.642;22.430;2023-04-25T10:29:25;25.53;39.16
65478;SHT31;53678;39.642;22.430;2023-04-25T10:31:52;25.69;38.60
65478;SHT31;53678;39.642;22.430;2023-04-25T10:34:18;25.77;37.99
65478;SHT31;53678;39.642;22.430;2023-04-25T10:36:51;25.80;38.13
65478;SHT31;53678;39.642;22.430;2023-04-25T10:39:26;25.76;37.96
65478;SHT31;53678;39.642;22.430;2023-04-25T10:41:56;25.93;37.68
65478;SHT31;53678;39.642;22.430;2023-04-25T10:44:28;25.83;37.78
65478;SHT31;53678;39.642;22.430;2023-04-25T10:46:56;26.07;37.93
65478;SHT31;53678;39.642;22.430;2023-04-25T10:49:42;25.90;37.89
65478;SHT31;53678;39.642;22.430;2023-04-25T10:52:12;25.70;38.27
65478;SHT31;53678;39.642;22.430;2023-04-25T10:54:51;25.60;38.43
65478;SHT31;53678;39.642;22.430;2023-04-25T11:00:14;25.46;38.60
65478;SHT31;53678;39.642;22.430;2023-04-25T11:02:52;25.74;37.97
65478;SHT31;53678;39.642;22.430;2023-04-25T11:05:29;25.80;37.58
65478;SHT31;53678;39.642;22.430;2023-04-25T11:07:55;25.70;37.55
65478;SHT31;53678;39.642;22.430;2023-04-25T11:10:32;25.84;37.05
65478;SHT31;53678;39.642;22.430;2023-04-25T11:13:01;26.00;37.15
65478;SHT31;53678;39.642;22.430;2023-04-25T11:15:27;25.98;37.26
65478;SHT31;53678;39.642;22.430;2023-04-25T11:17:55;25.79;37.28
65478;SHT31;53678;39.642;22.430;2023-04-25T11:20:22;25.59;37.21
65478;SHT31;53678;39.642;22.430;2023-04-25T11:22:48;25.38;37.38
65478;SHT31;53678;39.642;22.430;2023-04-25T11:25:15;25.33;37.27
65478;SHT31;53678;39.642;22.430;2023-04-25T11:27:56;25.16;37.89
65478;SHT31;53678;39.642;22.430;2023-04-25T11:30:23;24.90;38.71
65478;SHT31;53678;39.642;22.430;2023-04-25T11:32:53;25.07;38.54
65478;SHT31;53678;39.642;22.430;2023-04-25T11:35:20;25.02;38.35
65478;SHT31;53678;39.642;22.430;2023-04-25T11:37:51;25.11;37.72
65478;SHT31;53678;39.642;22.430;2023-04-25T11:40:16;25.01;37.88
65478;SHT31;53678;39.642;22.430;2023-04-25T11:42:46;25.01;37.64
65478;SHT31;53678;39.642;22.430;2023-04-25T11:45:14;24.91;37.64
65478;SHT31;53678;39.642;22.430;2023-04-25T11:47:40;24.94;37.73
65478;SHT31;53678;39.642;22.430;2023-04-25T11:50:07;24.88;37.67
65478;SHT31;53678;39.642;22.430;2023-04-25T11:52:40;24.94;37.70
65478;SHT31;53678;39.642;22.430;2023-04-25T11:55:13;24.98;37.52
65478;SHT31;53678;39.642;22.430;2023-04-25T11:57:41;24.95;37.23
65478;SHT31;53678;39.642;22.430;2023-04-25T12:00:11;24.94;37.26
65478;SHT31;53678;39.642;22.430;2023-04-25T12:02:51;24.92;37.31
65478;SHT31;53678;39.642;22.430;2023-04-25T12:05:18;25.18;37.18
65478;SHT31;53678;39.642;22.430;2023-04-25T12:07:47;25.21;37.31
65478;SHT31;53678;39.642;22.430;2023-04-25T12:10:14;25.32;37.13
65478;SHT31;53678;39.642;22.430;2023-04-25T12:12:48;25.29;37.64
65478;SHT31;53678;39.642;22.430;2023-04-25T12:15:24;25.49;37.69
65478;SHT31;53678;39.642;22.430;2023-04-25T12:17:53;25.49;37.50
65478;SHT31;53678;39.642;22.430;2023-04-25T12:20:23;25.51;37.18
65478;SHT31;53678;39.642;22.430;2023-04-25T12:22:49;25.28;37.46
65478;SHT31;53678;39.642;22.430;2023-04-25T12:25:54;25.25;37.81
65478;SHT31;53678;39.642;22.430;2023-04-25T12:28:22;25.35;38.24
65478;SHT31;53678;39.642;22.430;2023-04-25T12:31:05;25.30;38.60
65478;SHT31;53678;39.642;22.430;2023-04-25T12:33:33;25.29;38.43
65478;SHT31;53678;39.642;22.430;2023-04-25T12:35:59;25.35;37.98
65478;SHT31;53678;39.642;22.430;2023-04-25T12:38:28;25.25;38.30
65478;SHT31;53678;39.642;22.430;2023-04-25T12:40:55;25.05;38.49
65478;SHT31;53678;39.642;22.430;2023-04-25T12:43:21;25.11;38.56
65478;SHT31;53678;39.642;22.430;2023-04-25T12:45:50;25.16;38.70
65478;SHT31;53678;39.642;22.430;2023-04-25T12:48:18;25.15;38.86
65478;SHT31;53678;39.642;22.430;2023-04-25T12:50:45;25.29;38.72
65478;SHT31;53678;39.642;22.430;2023-04-25T12:53:16;25.28;38.76
65478;SHT31;53678;39.642;22.430;2023-04-25T12:55:42;25.22;38.80
65478;SHT31;53678;39.642;22.430;2023-04-25T12:58:12;25.28;39.27
65478;SHT31;53678;39.642;22.430;2023-04-25T13:00:41;25.15;39.18
65478;SHT31;53678;39.642;22.430;2023-04-25T13:03:08;25.22;38.86
65478;SHT31;53678;39.642;22.430;2023-04-25T13:05:43;25.16;39.13
65478;SHT31;53678;39.642;22.430;2023-04-25T13:08:12;25.02;39.30
65478;SHT31;53678;39.642;22.430;2023-04-25T13:10:38;25.04;39.20
65478;SHT31;53678;39.642;22.430;2023-04-25T13:13:07;24.88;40.49
65478;SHT31;53678;39.642;22.430;2023-04-25T13:15:35;24.99;40.02
65478;SHT31;53678;39.642;22.430;2023-04-25T13:18:01;25.07;40.06
65478;SHT31;53678;39.642;22.430;2023-04-25T13:20:27;25.18;39.98
65478;SHT31;53678;39.642;22.430;2023-04-25T13:22:53;25.36;40.02
65478;SHT31;53678;39.642;22.430;2023-04-25T13:25:19;25.39;40.12
65478;SHT31;53678;39.642;22.430;2023-04-25T13:27:46;25.09;39.94
65478;SHT31;53678;39.642;22.430;2023-04-25T13:30:13;24.85;40.78
65478;SHT31;53678;39.642;22.430;2023-04-25T13:32:39;24.71;40.84
65478;SHT31;53678;39.642;22.430;2023-04-25T13:35:10;24.90;40.40
65478;SHT31;53678;39.642;22.430;2023-04-25T13:37:37;24.94;40.03
65478;SHT31;53678;39.642;22.430;2023-04-25T13:40:07;24.57;40.64
65478;SHT31;53678;39.642;22.430;2023-04-25T13:42:36;24.50;41.12
65478;SHT31;53678;39.642;22.430;2023-04-25T13:45:02;24.47;41.31
65478;SHT31;53678;39.642;22.430;2023-04-25T13:47:28;24.44;41.47
65478;SHT31;53678;39.642;22.430;2023-04-25T13:49:56;24.39;42.33
65478;SHT31;53678;39.642;22.430;2023-04-25T13:52:27;24.56;42.30
65478;SHT31;53678;39.642;22.430;2023-04-25T13:54:55;24.59;42.00
65478;SHT31;53678;39.642;22.430;2023-04-25T13:57:21;24.44;41.87
65478;SHT31;53678;39.642;22.430;2023-04-25T13:59:47;24.47;41.99
65478;SHT31;53678;39.642;22.430;2023-04-25T14:02:12;24.33;42.52
65478;SHT31;53678;39.642;22.430;2023-04-25T14:04:38;24.41;42.75
65478;SHT31;53678;39.642;22.430;2023-04-25T14:07:04;24.10;42.48
65478;SHT31;53678;39.642;22.430;2023-04-25T14:09:30;24.17;42.55
65478;SHT31;53678;39.642;22.430;2023-04-25T14:11:56;24.16;42.25
65478;SHT31;53678;39.642;22.430;2023-04-25T14:14:23;24.30;41.87
65478;SHT31;53678;39.642;22.430;2023-04-25T14:16:49;24.44;41.73
65478;SHT31;53678;39.642;22.430;2023-04-25T14:19:17;24.51;41.14
65478;SHT31;53678;39.642;22.430;2023-04-25T14:21:43;24.40;40.93
65478;SHT31;53678;39.642;22.430;2023-04-25T14:24:10;24.30;40.68
65478;SHT31;53678;39.642;22.430;2023-04-25T14:26:55;24.02;40.54
65478;SHT31;53678;39.642;22.430;2023-04-25T14:29:21;24.01;40.17
65478;SHT31;53678;39.642;22.430;2023-04-25T14:31:47;23.93;40.47
65478;SHT31;53678;39.642;22.430;2023-04-25T14:34:13;23.81;40.55
65478;SHT31;53678;39.642;22.430;2023-04-25T14:36:39;23.68;40.95
65478;SHT31;53678;39.642;22.430;2023-04-25T14:39:05;23.81;40.82
65478;SHT31;53678;39.642;22.430;2023-04-25T14:41:34;23.95;40.82
65478;SHT31;53678;39.642;22.430;2023-04-25T14:44:00;23.99;40.75
65478;SHT31;53678;39.642;22.430;2023-04-25T14:46:26;23.90;40.62
65478;SHT31;53678;39.642;22.430;2023-04-25T14:48:52;23.88;40.31
65478;SHT31;53678;39.642;22.430;2023-04-25T14:51:18;23.90;39.70
65478;SHT31;53678;39.642;22.430;2023-04-25T14:53:44;23.82;39.88
65478;SHT31;53678;39.642;22.430;2023-04-25T14:56:12;23.66;40.30
65478;SHT31;53678;39.642;22.430;2023-04-25T14:58:40;23.59;40.63
65478;SHT31;53678;39.642;22.430;2023-04-25T15:01:07;23.57;41.04
65478;SHT31;53678;39.642;22.430;2023-04-25T15:03:33;23.48;41.16
65478;SHT31;53678;39.642;22.430;2023-04-25T15:05:59;23.50;41.19
65478;SHT31;53678;39.642;22.430;2023-04-25T15:08:26;23.47;40.76
65478;SHT31;53678;39.642;22.430;2023-04-25T15:10:52;23.38;40.97
65478;SHT31;53678;39.642;22.430;2023-04-25T15:13:22;23.35;41.33
65478;SHT31;53678;39.642;22.430;2023-04-25T15:15:47;23.38;41.15
65478;SHT31;53678;39.642;22.430;2023-04-25T15:18:17;23.31;41.24
65478;SHT31;53678;39.642;22.430;2023-04-25T15:20:45;23.28;41.49
65478;SHT31;53678;39.642;22.430;2023-04-25T15:23:12;23.44;41.51
65478;SHT31;53678;39.642;22.430;2023-04-25T15:25:37;23.43;41.24
65478;SHT31;53678;39.642;22.430;2023-04-25T15:28:03;23.26;41.79
65478;SHT31;53678;39.642;22.430;2023-04-25T15:30:30;23.24;41.90
65478;SHT31;53678;39.642;22.430;2023-04-25T15:32:55;23.11;42.08
65478;SHT31;53678;39.642;22.430;2023-04-25T15:35:22;22.99;42.36
65478;SHT31;53678;39.642;22.430;2023-04-25T15:37:48;22.92;42.55